Berit — ZDHX2 — position and weather

sailwx.info

Track history (hours):
 
Tides and Currents Weather Stations Pressure Air Temp Water Temp Dewpoint Dewpoint Depression Visibility Wind Speed Wind Dir Waves Ship Positions

Berit

Last reported at 2014-Sep-21 21:29 UTC. Time now 2014-Sep-21 22:17 UTC.
Position N 52°27' E 002°58'.

Length 83 m; draft 4.7 m.

Type: Cargo ship. MMSI: 236386000.

Date/timePositionNaut miles runAvg speedWind from/ knotsBaromVisibWave heightAir tempDewpointWater temp
2014-Sep-21 21:29N 52°27' E 002°58'55 6.9
2014-Sep-21 13:31N 51°37' E 002°23'9 9.2
2014-Sep-21 12:33N 51°30' E 002°13'10 9.5
2014-Sep-21 11:32N 51°23' E 002°03'9 9.4
2014-Sep-21 10:33N 51°16' E 001°54'9 9.0
2014-Sep-21 09:34N 51°09' E 001°44'8 8.3
2014-Sep-21 08:33N 51°03' E 001°36'  
2014-Sep-19 03:14N 46°37' W 002°16'710.1
2014-Sep-19 02:34N 46°33' W 002°07'1010.3
2014-Sep-19 01:34N 46°28' W 001°55'5 5.3
2014-Sep-19 00:34N 46°30' W 001°48'0 0.2
2014-Sep-18 23:32N 46°30' W 001°48'0 0.0
2014-Sep-18 22:32N 46°30' W 001°47'0 0.0
2014-Sep-18 21:32N 46°30' W 001°47'0 0.0
2014-Sep-18 20:32N 46°30' W 001°47'0 0.0
2014-Sep-18 19:32N 46°30' W 001°47'0 0.0
2014-Sep-18 18:32N 46°30' W 001°47'0 0.0
2014-Sep-18 17:32N 46°30' W 001°47'0 0.0
2014-Sep-18 16:32N 46°30' W 001°47'0 0.0
2014-Sep-18 15:32N 46°30' W 001°47'0 0.0
2014-Sep-18 14:32N 46°30' W 001°47'0 0.0
2014-Sep-18 13:32N 46°30' W 001°47'0 0.0
2014-Sep-18 12:32N 46°30' W 001°47'0 0.0
2014-Sep-18 11:32N 46°30' W 001°47'0 0.0
2014-Sep-18 10:32N 46°30' W 001°47'0 0.0
2014-Sep-18 09:32N 46°30' W 001°47'0 0.0
2014-Sep-18 08:32N 46°30' W 001°47'0 0.0
2014-Sep-18 07:32N 46°30' W 001°47'0 0.0
2014-Sep-18 06:32N 46°30' W 001°47'0 0.0
2014-Sep-18 05:32N 46°30' W 001°47'0 0.0
2014-Sep-18 04:32N 46°30' W 001°47'0 0.0
2014-Sep-18 03:32N 46°30' W 001°47'0 0.0
2014-Sep-18 02:32N 46°30' W 001°47'0 0.0
2014-Sep-18 01:32N 46°30' W 001°47'0 0.0
2014-Sep-18 00:32N 46°30' W 001°47'0 0.0
2014-Sep-17 23:32N 46°30' W 001°47'0 0.0
2014-Sep-17 22:32N 46°30' W 001°47'0 0.0
2014-Sep-17 21:32N 46°30' W 001°47'0 0.0
2014-Sep-17 20:32N 46°30' W 001°47'0 0.0
2014-Sep-17 19:32N 46°30' W 001°47'0 0.0
2014-Sep-17 18:32N 46°30' W 001°47'0 0.0
2014-Sep-17 17:32N 46°30' W 001°47'0 0.0
2014-Sep-17 16:32N 46°30' W 001°47'0 0.0
2014-Sep-17 15:32N 46°30' W 001°47'0 0.0
2014-Sep-17 14:32N 46°30' W 001°47'0 0.0
2014-Sep-17 13:32N 46°30' W 001°48'0 0.1
2014-Sep-17 12:32N 46°30' W 001°48'0 0.0
2014-Sep-17 11:32N 46°30' W 001°48'0 0.0
2014-Sep-17 10:32N 46°30' W 001°48'0 0.0
2014-Sep-17 09:32N 46°30' W 001°48'0 0.0
2014-Sep-17 08:32N 46°30' W 001°48'0 0.0
2014-Sep-17 07:32N 46°30' W 001°48'0 0.0
2014-Sep-17 06:32N 46°30' W 001°48'0 0.0
2014-Sep-17 05:32N 46°30' W 001°48'0 0.0
2014-Sep-17 04:32N 46°30' W 001°48'0 0.0
2014-Sep-17 03:32N 46°30' W 001°48'0 0.0
2014-Sep-17 02:32N 46°30' W 001°48'0 0.0
2014-Sep-17 01:32N 46°30' W 001°48'0 0.0
2014-Sep-17 00:32N 46°30' W 001°48'0 0.0
2014-Sep-16 23:32N 46°30' W 001°48'0 0.0
2014-Sep-16 22:32N 46°30' W 001°48'0 0.0
2014-Sep-16 21:32N 46°30' W 001°48'0 0.0
2014-Sep-16 20:32N 46°30' W 001°48'0 0.0
2014-Sep-16 19:32N 46°30' W 001°48'0 0.0
2014-Sep-16 18:32N 46°30' W 001°48'0 0.0
2014-Sep-16 17:32N 46°30' W 001°48'0 0.0
2014-Sep-16 16:32N 46°30' W 001°48'0 0.0
2014-Sep-16 15:32N 46°30' W 001°48'0 0.0
2014-Sep-16 14:32N 46°30' W 001°48'0 0.0
2014-Sep-16 13:32N 46°30' W 001°48'0 0.0
2014-Sep-16 12:32N 46°30' W 001°48'0 0.0
2014-Sep-16 11:32N 46°30' W 001°48'0 0.0
2014-Sep-16 10:32N 46°30' W 001°48'0 0.0
2014-Sep-16 09:32N 46°30' W 001°48'0 0.0
2014-Sep-16 08:32N 46°30' W 001°48'0 0.0
2014-Sep-16 07:32N 46°30' W 001°48'0 0.0
2014-Sep-16 06:32N 46°30' W 001°48'0 0.0
2014-Sep-16 05:32N 46°30' W 001°48'0 0.0
2014-Sep-16 04:32N 46°30' W 001°48'0 0.0
2014-Sep-16 03:32N 46°30' W 001°48'0 0.0
2014-Sep-16 02:32N 46°30' W 001°48'0 0.0
2014-Sep-16 01:32N 46°30' W 001°48'0 0.0
2014-Sep-16 00:32N 46°30' W 001°48'0 0.0
2014-Sep-15 23:32N 46°30' W 001°48'0 0.0
2014-Sep-15 22:32N 46°30' W 001°48'0 0.0
2014-Sep-15 21:32N 46°30' W 001°48'0 0.0
2014-Sep-15 20:32N 46°30' W 001°48'0 0.0
2014-Sep-15 19:32N 46°30' W 001°48'0 0.0
2014-Sep-15 18:32N 46°30' W 001°48'0 0.0
2014-Sep-15 17:32N 46°30' W 001°48'0 0.1
2014-Sep-15 16:32N 46°30' W 001°48'0 0.0
2014-Sep-15 15:32N 46°30' W 001°48'0 0.0
2014-Sep-15 14:32N 46°30' W 001°48'0 0.0
2014-Sep-15 13:32N 46°30' W 001°48'0 0.0
2014-Sep-15 12:32N 46°30' W 001°48'0 0.0
2014-Sep-15 11:32N 46°30' W 001°48'0 0.0
2014-Sep-15 10:32N 46°30' W 001°48'0 0.0
2014-Sep-15 09:32N 46°30' W 001°48'0 0.0
2014-Sep-15 08:32N 46°30' W 001°48'0 0.0
2014-Sep-15 07:32N 46°30' W 001°48'0 0.0
2014-Sep-15 06:32N 46°30' W 001°48'0 0.0
2014-Sep-15 05:32N 46°30' W 001°48'0 0.0
2014-Sep-15 04:32N 46°30' W 001°48'0 0.0
2014-Sep-15 03:32N 46°30' W 001°48'0 0.0
2014-Sep-15 02:32N 46°30' W 001°48'0 0.0
2014-Sep-15 01:32N 46°30' W 001°48'0 0.0
2014-Sep-15 00:32N 46°30' W 001°48'0 0.0
2014-Sep-14 23:32N 46°30' W 001°48'0 0.0
2014-Sep-14 22:32N 46°30' W 001°48'0 0.0
2014-Sep-14 21:32N 46°30' W 001°48'0 0.0
2014-Sep-14 20:32N 46°30' W 001°48'0 0.0
2014-Sep-14 19:32N 46°30' W 001°48'0 0.0
2014-Sep-14 18:32N 46°30' W 001°48'0 0.0
2014-Sep-14 17:32N 46°30' W 001°48'0 0.0
2014-Sep-14 16:32N 46°30' W 001°48'0 0.0
2014-Sep-14 15:32N 46°30' W 001°47'0 0.0
2014-Sep-14 14:32N 46°30' W 001°48'0 0.0
2014-Sep-14 13:32N 46°30' W 001°48'0 0.0
2014-Sep-14 12:32N 46°30' W 001°48'0 0.0
2014-Sep-14 11:32N 46°30' W 001°48'0 0.0
2014-Sep-14 10:32N 46°30' W 001°48'0 0.0
2014-Sep-14 09:32N 46°30' W 001°48'0 0.0
2014-Sep-14 08:32N 46°30' W 001°48'0 0.0
2014-Sep-14 07:32N 46°30' W 001°48'0 0.0
2014-Sep-14 06:32N 46°30' W 001°48'0 0.0
2014-Sep-14 05:32N 46°30' W 001°48'0 0.0
2014-Sep-14 04:32N 46°30' W 001°48'0 0.0
2014-Sep-14 03:32N 46°30' W 001°48'0 0.0
2014-Sep-14 02:32N 46°30' W 001°48'0 0.0
2014-Sep-14 01:32N 46°30' W 001°48'0 0.0
2014-Sep-13 21:32N 46°30' W 001°48'0 0.0
2014-Sep-13 20:32N 46°30' W 001°48'0 0.0
2014-Sep-13 19:32N 46°30' W 001°48'0 0.0
2014-Sep-13 18:32N 46°30' W 001°48'0 0.0
2014-Sep-13 17:32N 46°30' W 001°48'0 0.0
2014-Sep-13 16:29N 46°30' W 001°48'0 0.0
2014-Sep-13 15:32N 46°30' W 001°48'0 0.0
2014-Sep-13 14:32N 46°30' W 001°47'0 0.0
2014-Sep-13 13:32N 46°30' W 001°48'0 0.0
2014-Sep-13 12:32N 46°30' W 001°48'0 0.0
2014-Sep-13 11:32N 46°30' W 001°48'0 0.0
2014-Sep-13 10:32N 46°30' W 001°47'0 0.0
2014-Sep-13 09:32N 46°30' W 001°48'0 0.0
2014-Sep-13 08:32N 46°30' W 001°48'0 0.0
2014-Sep-13 07:32N 46°30' W 001°48'0 0.0
2014-Sep-13 06:32N 46°30' W 001°48'2 1.8
2014-Sep-13 05:33N 46°28' W 001°47'4 3.9
2014-Sep-13 04:34N 46°27' W 001°53'7 7.1
2014-Sep-13 03:34N 46°30' W 002°01'7 7.1
2014-Sep-13 02:33N 46°34' W 002°10'131 7.1
2014-Sep-12 08:05N 47°51' W 004°46'4 7.5
2014-Sep-12 07:33N 47°53' W 004°51'8 7.8
2014-Sep-12 06:28N 47°58' W 005°01'  
Track history (hours):
 
Tides and Currents Weather Stations Pressure Air Temp Water Temp Dewpoint Dewpoint Depression Visibility Wind Speed Wind Dir Waves Ship Positions

Berit

Last reported at 2014-Sep-21 21:29 UTC. Time now 2014-Sep-21 22:17 UTC.
Position N 52°27' E 002°58'.

Length 83 m; draft 4.7 m.

Type: Cargo ship. MMSI: 236386000.

Date/timePositionNaut miles runAvg speedWind from/ knotsBaromVisibWave heightAir tempDewpointWater temp
2014-Sep-21 21:29N 52°27' E 002°58'55 6.9
2014-Sep-21 13:31N 51°37' E 002°23'9 9.2
2014-Sep-21 12:33N 51°30' E 002°13'10 9.5
2014-Sep-21 11:32N 51°23' E 002°03'9 9.4
2014-Sep-21 10:33N 51°16' E 001°54'9 9.0
2014-Sep-21 09:34N 51°09' E 001°44'8 8.3
2014-Sep-21 08:33N 51°03' E 001°36'  
2014-Sep-19 03:14N 46°37' W 002°16'710.1
2014-Sep-19 02:34N 46°33' W 002°07'1010.3
2014-Sep-19 01:34N 46°28' W 001°55'5 5.3
2014-Sep-19 00:34N 46°30' W 001°48'0 0.2
2014-Sep-18 23:32N 46°30' W 001°48'0 0.0
2014-Sep-18 22:32N 46°30' W 001°47'0 0.0
2014-Sep-18 21:32N 46°30' W 001°47'0 0.0
2014-Sep-18 20:32N 46°30' W 001°47'0 0.0
2014-Sep-18 19:32N 46°30' W 001°47'0 0.0
2014-Sep-18 18:32N 46°30' W 001°47'0 0.0
2014-Sep-18 17:32N 46°30' W 001°47'0 0.0
2014-Sep-18 16:32N 46°30' W 001°47'0 0.0
2014-Sep-18 15:32N 46°30' W 001°47'0 0.0
2014-Sep-18 14:32N 46°30' W 001°47'0 0.0
2014-Sep-18 13:32N 46°30' W 001°47'0 0.0
2014-Sep-18 12:32N 46°30' W 001°47'0 0.0
2014-Sep-18 11:32N 46°30' W 001°47'0 0.0
2014-Sep-18 10:32N 46°30' W 001°47'0 0.0
2014-Sep-18 09:32N 46°30' W 001°47'0 0.0
2014-Sep-18 08:32N 46°30' W 001°47'0 0.0
2014-Sep-18 07:32N 46°30' W 001°47'0 0.0
2014-Sep-18 06:32N 46°30' W 001°47'0 0.0
2014-Sep-18 05:32N 46°30' W 001°47'0 0.0
2014-Sep-18 04:32N 46°30' W 001°47'0 0.0
2014-Sep-18 03:32N 46°30' W 001°47'0 0.0
2014-Sep-18 02:32N 46°30' W 001°47'0 0.0
2014-Sep-18 01:32N 46°30' W 001°47'0 0.0
2014-Sep-18 00:32N 46°30' W 001°47'0 0.0
2014-Sep-17 23:32N 46°30' W 001°47'0 0.0
2014-Sep-17 22:32N 46°30' W 001°47'0 0.0
2014-Sep-17 21:32N 46°30' W 001°47'0 0.0
2014-Sep-17 20:32N 46°30' W 001°47'0 0.0
2014-Sep-17 19:32N 46°30' W 001°47'0 0.0
2014-Sep-17 18:32N 46°30' W 001°47'0 0.0
2014-Sep-17 17:32N 46°30' W 001°47'0 0.0
2014-Sep-17 16:32N 46°30' W 001°47'0 0.0
2014-Sep-17 15:32N 46°30' W 001°47'0 0.0
2014-Sep-17 14:32N 46°30' W 001°47'0 0.0
2014-Sep-17 13:32N 46°30' W 001°48'0 0.1
2014-Sep-17 12:32N 46°30' W 001°48'0 0.0
2014-Sep-17 11:32N 46°30' W 001°48'0 0.0
2014-Sep-17 10:32N 46°30' W 001°48'0 0.0
2014-Sep-17 09:32N 46°30' W 001°48'0 0.0
2014-Sep-17 08:32N 46°30' W 001°48'0 0.0
2014-Sep-17 07:32N 46°30' W 001°48'0 0.0
2014-Sep-17 06:32N 46°30' W 001°48'0 0.0
2014-Sep-17 05:32N 46°30' W 001°48'0 0.0
2014-Sep-17 04:32N 46°30' W 001°48'0 0.0
2014-Sep-17 03:32N 46°30' W 001°48'0 0.0
2014-Sep-17 02:32N 46°30' W 001°48'0 0.0
2014-Sep-17 01:32N 46°30' W 001°48'0 0.0
2014-Sep-17 00:32N 46°30' W 001°48'0 0.0
2014-Sep-16 23:32N 46°30' W 001°48'0 0.0
2014-Sep-16 22:32N 46°30' W 001°48'0 0.0
2014-Sep-16 21:32N 46°30' W 001°48'0 0.0
2014-Sep-16 20:32N 46°30' W 001°48'0 0.0
2014-Sep-16 19:32N 46°30' W 001°48'0 0.0
2014-Sep-16 18:32N 46°30' W 001°48'0 0.0
2014-Sep-16 17:32N 46°30' W 001°48'0 0.0
2014-Sep-16 16:32N 46°30' W 001°48'0 0.0
2014-Sep-16 15:32N 46°30' W 001°48'0 0.0
2014-Sep-16 14:32N 46°30' W 001°48'0 0.0
2014-Sep-16 13:32N 46°30' W 001°48'0 0.0
2014-Sep-16 12:32N 46°30' W 001°48'0 0.0
2014-Sep-16 11:32N 46°30' W 001°48'0 0.0
2014-Sep-16 10:32N 46°30' W 001°48'0 0.0
2014-Sep-16 09:32N 46°30' W 001°48'0 0.0
2014-Sep-16 08:32N 46°30' W 001°48'0 0.0
2014-Sep-16 07:32N 46°30' W 001°48'0 0.0
2014-Sep-16 06:32N 46°30' W 001°48'0 0.0
2014-Sep-16 05:32N 46°30' W 001°48'0 0.0
2014-Sep-16 04:32N 46°30' W 001°48'0 0.0
2014-Sep-16 03:32N 46°30' W 001°48'0 0.0
2014-Sep-16 02:32N 46°30' W 001°48'0 0.0
2014-Sep-16 01:32N 46°30' W 001°48'0 0.0
2014-Sep-16 00:32N 46°30' W 001°48'0 0.0
2014-Sep-15 23:32N 46°30' W 001°48'0 0.0
2014-Sep-15 22:32N 46°30' W 001°48'0 0.0
2014-Sep-15 21:32N 46°30' W 001°48'0 0.0
2014-Sep-15 20:32N 46°30' W 001°48'0 0.0
2014-Sep-15 19:32N 46°30' W 001°48'0 0.0
2014-Sep-15 18:32N 46°30' W 001°48'0 0.0
2014-Sep-15 17:32N 46°30' W 001°48'0 0.1
2014-Sep-15 16:32N 46°30' W 001°48'0 0.0
2014-Sep-15 15:32N 46°30' W 001°48'0 0.0
2014-Sep-15 14:32N 46°30' W 001°48'0 0.0
2014-Sep-15 13:32N 46°30' W 001°48'0 0.0
2014-Sep-15 12:32N 46°30' W 001°48'0 0.0
2014-Sep-15 11:32N 46°30' W 001°48'0 0.0
2014-Sep-15 10:32N 46°30' W 001°48'0 0.0
2014-Sep-15 09:32N 46°30' W 001°48'0 0.0
2014-Sep-15 08:32N 46°30' W 001°48'0 0.0
2014-Sep-15 07:32N 46°30' W 001°48'0 0.0
2014-Sep-15 06:32N 46°30' W 001°48'0 0.0
2014-Sep-15 05:32N 46°30' W 001°48'0 0.0
2014-Sep-15 04:32N 46°30' W 001°48'0 0.0
2014-Sep-15 03:32N 46°30' W 001°48'0 0.0
2014-Sep-15 02:32N 46°30' W 001°48'0 0.0
2014-Sep-15 01:32N 46°30' W 001°48'0 0.0
2014-Sep-15 00:32N 46°30' W 001°48'0 0.0
2014-Sep-14 23:32N 46°30' W 001°48'0 0.0
2014-Sep-14 22:32N 46°30' W 001°48'0 0.0
2014-Sep-14 21:32N 46°30' W 001°48'0 0.0
2014-Sep-14 20:32N 46°30' W 001°48'0 0.0
2014-Sep-14 19:32N 46°30' W 001°48'0 0.0
2014-Sep-14 18:32N 46°30' W 001°48'0 0.0
2014-Sep-14 17:32N 46°30' W 001°48'0 0.0
2014-Sep-14 16:32N 46°30' W 001°48'0 0.0
2014-Sep-14 15:32N 46°30' W 001°47'0 0.0
2014-Sep-14 14:32N 46°30' W 001°48'0 0.0
2014-Sep-14 13:32N 46°30' W 001°48'0 0.0
2014-Sep-14 12:32N 46°30' W 001°48'0 0.0
2014-Sep-14 11:32N 46°30' W 001°48'0 0.0
2014-Sep-14 10:32N 46°30' W 001°48'0 0.0
2014-Sep-14 09:32N 46°30' W 001°48'0 0.0
2014-Sep-14 08:32N 46°30' W 001°48'0 0.0
2014-Sep-14 07:32N 46°30' W 001°48'0 0.0
2014-Sep-14 06:32N 46°30' W 001°48'0 0.0
2014-Sep-14 05:32N 46°30' W 001°48'0 0.0
2014-Sep-14 04:32N 46°30' W 001°48'0 0.0
2014-Sep-14 03:32N 46°30' W 001°48'0 0.0
2014-Sep-14 02:32N 46°30' W 001°48'0 0.0
2014-Sep-14 01:32N 46°30' W 001°48'0 0.0
2014-Sep-13 21:32N 46°30' W 001°48'0 0.0
2014-Sep-13 20:32N 46°30' W 001°48'0 0.0
2014-Sep-13 19:32N 46°30' W 001°48'0 0.0
2014-Sep-13 18:32N 46°30' W 001°48'0 0.0
2014-Sep-13 17:32N 46°30' W 001°48'0 0.0
2014-Sep-13 16:29N 46°30' W 001°48'0 0.0
2014-Sep-13 15:32N 46°30' W 001°48'0 0.0
2014-Sep-13 14:32N 46°30' W 001°47'0 0.0
2014-Sep-13 13:32N 46°30' W 001°48'0 0.0
2014-Sep-13 12:32N 46°30' W 001°48'0 0.0
2014-Sep-13 11:32N 46°30' W 001°48'0 0.0
2014-Sep-13 10:32N 46°30' W 001°47'0 0.0
2014-Sep-13 09:32N 46°30' W 001°48'0 0.0
2014-Sep-13 08:32N 46°30' W 001°48'0 0.0
2014-Sep-13 07:32N 46°30' W 001°48'0 0.0
2014-Sep-13 06:32N 46°30' W 001°48'2 1.8
2014-Sep-13 05:33N 46°28' W 001°47'4 3.9
2014-Sep-13 04:34N 46°27' W 001°53'7 7.1
2014-Sep-13 03:34N 46°30' W 002°01'7 7.1
2014-Sep-13 02:33N 46°34' W 002°10'131 7.1
2014-Sep-12 08:05N 47°51' W 004°46'4 7.5
2014-Sep-12 07:33N 47°53' W 004°51'8 7.8
2014-Sep-12 06:28N 47°58' W 005°01'  

Dump ship's entire track history